DLH6DK EDDH-ENBR
Flight info
| Callsign | DLH6DK |
|---|---|
| Flight time | 1h 9m |
| Altitude | 34000 |
| Route | ELSOB3G/33 ELSOB Y348 OMWEG DCT BADOS DCT ATTUS DCT BADAB |
| Aircraft | A320/M-SDE3FGHIRWY/LB1 |
Departure
| Time | 2026-04-23 18:29 |
|---|---|
| Airport | Hamburg Helmut Schmidt Airport (EDDH) |
Arrival
| Time | 2026-04-23 19:38 |
|---|---|
| Airport | Bergen Airport, Flesland (ENBR) |
| Time | Latitude | Longitude | Altitude | Speed | Heading |
|---|---|---|---|---|---|
| 2026-04-23 17:47 | 53.63373 | 10.00342 | 49 ft | 0 kts | 86° |
| 2026-04-23 17:48 | 53.63373 | 10.00350 | 49 ft | 0 kts | 86° |
| 2026-04-23 18:17 | 53.63372 | 10.00316 | 43 ft | 4 kts | 86° |
| 2026-04-23 18:18 | 53.63370 | 10.00270 | 46 ft | 4 kts | 86° |
| 2026-04-23 18:18 | 53.63368 | 10.00234 | 47 ft | 4 kts | 87° |
| 2026-04-23 18:18 | 53.63370 | 10.00190 | 45 ft | 4 kts | 109° |
| 2026-04-23 18:18 | 53.63383 | 10.00159 | 47 ft | 4 kts | 169° |
| 2026-04-23 18:19 | 53.63388 | 10.00158 | 45 ft | 0 kts | 176° |
| 2026-04-23 18:21 | 53.63355 | 10.00161 | 44 ft | 12 kts | 176° |
| 2026-04-23 18:21 | 53.63240 | 10.00177 | 45 ft | 18 kts | 174° |
| 2026-04-23 18:22 | 53.63117 | 10.00195 | 48 ft | 17 kts | 175° |
| 2026-04-23 18:22 | 53.63010 | 10.00124 | 48 ft | 17 kts | 213° |
| 2026-04-23 18:22 | 53.62934 | 10.00034 | 48 ft | 11 kts | 226° |
| 2026-04-23 18:22 | 53.62917 | 9.99984 | 48 ft | 0 kts | 244° |
| 2026-04-23 18:23 | 53.62916 | 9.99982 | 48 ft | 1 kts | 244° |
| 2026-04-23 18:23 | 53.62894 | 9.99907 | 47 ft | 1 kts | 242° |
| 2026-04-23 18:24 | 53.62893 | 9.99905 | 47 ft | 0 kts | 242° |
| 2026-04-23 18:27 | 53.62893 | 9.99904 | 47 ft | 0 kts | 242° |
| 2026-04-23 18:27 | 53.62888 | 9.99887 | 70 ft | 4 kts | 242° |
| 2026-04-23 18:27 | 53.62868 | 9.99824 | 45 ft | 9 kts | 242° |
| 2026-04-23 18:27 | 53.62881 | 9.99733 | 45 ft | 10 kts | 329° |
| 2026-04-23 18:28 | 53.62892 | 9.99723 | 45 ft | 4 kts | 331° |
| 2026-04-23 18:28 | 53.63047 | 9.99584 | 46 ft | 59 kts | 332° |
| 2026-04-23 18:28 | 53.63610 | 9.99101 | 47 ft | 120 kts | 332° |
| 2026-04-23 18:28 | 53.64502 | 9.98358 | 103 ft | 160 kts | 331° |
| 2026-04-23 18:29 | 53.65472 | 9.97566 | 794 ft | 151 kts | 330° |
| 2026-04-23 18:29 | 53.66403 | 9.96823 | 1622 ft | 143 kts | 334° |
| 2026-04-23 18:29 | 53.67285 | 9.96130 | 2398 ft | 136 kts | 335° |
| 2026-04-23 18:29 | 53.68141 | 9.95438 | 2966 ft | 143 kts | 333° |
| 2026-04-23 18:30 | 53.69093 | 9.94591 | 3242 ft | 165 kts | 333° |
| 2026-04-23 18:30 | 53.70184 | 9.93599 | 3569 ft | 188 kts | 329° |
| 2026-04-23 18:30 | 53.71102 | 9.91965 | 4237 ft | 199 kts | 302° |
| 2026-04-23 18:30 | 53.71447 | 9.89604 | 4797 ft | 226 kts | 273° |
| 2026-04-23 18:31 | 53.71048 | 9.86842 | 5187 ft | 257 kts | 258° |
| 2026-04-23 18:31 | 53.70463 | 9.83906 | 5830 ft | 268 kts | 257° |
| 2026-04-23 18:31 | 53.69845 | 9.80894 | 6653 ft | 273 kts | 257° |
| 2026-04-23 18:31 | 53.69220 | 9.77848 | 7469 ft | 277 kts | 257° |
| 2026-04-23 18:32 | 53.68590 | 9.74756 | 8280 ft | 280 kts | 257° |
| 2026-04-23 18:32 | 53.67958 | 9.71615 | 8993 ft | 286 kts | 257° |
| 2026-04-23 18:32 | 53.67334 | 9.68465 | 9212 ft | 286 kts | 258° |
| 2026-04-23 18:32 | 53.67048 | 9.65212 | 9268 ft | 277 kts | 278° |
| 2026-04-23 18:33 | 53.67461 | 9.62091 | 9485 ft | 272 kts | 298° |
| 2026-04-23 18:33 | 53.68466 | 9.59428 | 10332 ft | 269 kts | 315° |
| 2026-04-23 18:33 | 53.69930 | 9.57412 | 10831 ft | 281 kts | 333° |
| 2026-04-23 18:33 | 53.71854 | 9.56357 | 11073 ft | 302 kts | 352° |
| 2026-04-23 18:34 | 53.73979 | 9.55895 | 11613 ft | 312 kts | 352° |
| 2026-04-23 18:34 | 53.76152 | 9.55412 | 12302 ft | 317 kts | 352° |
| 2026-04-23 18:34 | 53.78356 | 9.54909 | 12999 ft | 321 kts | 352° |
| 2026-04-23 18:34 | 53.80591 | 9.54392 | 13681 ft | 326 kts | 352° |
| 2026-04-23 18:35 | 53.82854 | 9.53863 | 14324 ft | 330 kts | 352° |
| 2026-04-23 18:35 | 53.85149 | 9.53322 | 14918 ft | 334 kts | 352° |
| 2026-04-23 18:35 | 53.87468 | 9.52776 | 15516 ft | 338 kts | 352° |
| 2026-04-23 18:35 | 53.89808 | 9.52226 | 16123 ft | 341 kts | 352° |
| 2026-04-23 18:36 | 53.92177 | 9.51670 | 16719 ft | 345 kts | 352° |
| 2026-04-23 18:36 | 53.94571 | 9.51109 | 17309 ft | 349 kts | 352° |
| 2026-04-23 18:36 | 53.96991 | 9.50538 | 17901 ft | 352 kts | 352° |
| 2026-04-23 18:36 | 53.99422 | 9.49841 | 18485 ft | 355 kts | 345° |
| 2026-04-23 18:37 | 54.01728 | 9.48444 | 18995 ft | 359 kts | 335° |
| 2026-04-23 18:37 | 54.03934 | 9.46359 | 19486 ft | 362 kts | 330° |
| 2026-04-23 18:37 | 54.06115 | 9.44205 | 20040 ft | 364 kts | 330° |
| 2026-04-23 18:37 | 54.08318 | 9.42028 | 20566 ft | 366 kts | 330° |
| 2026-04-23 18:38 | 54.10530 | 9.39844 | 21118 ft | 367 kts | 330° |
| 2026-04-23 18:38 | 54.12003 | 9.38389 | 21409 ft | 370 kts | 330° |
| 2026-04-23 18:38 | 54.14248 | 9.36170 | 21878 ft | 374 kts | 330° |
| 2026-04-23 18:38 | 54.16505 | 9.33937 | 22335 ft | 377 kts | 330° |
| 2026-04-23 18:39 | 54.18788 | 9.31681 | 22824 ft | 380 kts | 330° |
| 2026-04-23 18:39 | 54.21084 | 9.29411 | 23312 ft | 382 kts | 329° |
| 2026-04-23 18:39 | 54.23394 | 9.27117 | 23788 ft | 384 kts | 329° |
| 2026-04-23 18:39 | 54.25710 | 9.24809 | 24200 ft | 386 kts | 329° |
| 2026-04-23 18:40 | 54.28041 | 9.22490 | 24556 ft | 389 kts | 329° |
| 2026-04-23 18:40 | 54.30389 | 9.20150 | 24940 ft | 391 kts | 329° |
| 2026-04-23 18:40 | 54.32750 | 9.17790 | 25266 ft | 395 kts | 329° |
| 2026-04-23 18:40 | 54.35136 | 9.15405 | 25653 ft | 397 kts | 330° |
| 2026-04-23 18:41 | 54.37580 | 9.13178 | 26020 ft | 399 kts | 336° |
| 2026-04-23 18:41 | 54.40173 | 9.11455 | 26427 ft | 400 kts | 339° |
| 2026-04-23 18:41 | 54.42789 | 9.09741 | 26721 ft | 403 kts | 338° |
| 2026-04-23 18:41 | 54.45383 | 9.08031 | 27076 ft | 405 kts | 338° |
| 2026-04-23 18:42 | 54.48031 | 9.06279 | 27229 ft | 407 kts | 338° |
| 2026-04-23 18:42 | 54.50677 | 9.04528 | 27264 ft | 406 kts | 338° |
| 2026-04-23 18:42 | 54.53300 | 9.02792 | 27263 ft | 403 kts | 338° |
| 2026-04-23 18:42 | 54.55937 | 9.01045 | 27514 ft | 408 kts | 338° |
| 2026-04-23 18:43 | 54.58606 | 8.99279 | 27809 ft | 412 kts | 339° |
| 2026-04-23 18:43 | 54.61286 | 8.97506 | 28186 ft | 413 kts | 338° |
| 2026-04-23 18:43 | 54.63978 | 8.95717 | 28526 ft | 415 kts | 338° |
| 2026-04-23 18:43 | 54.66680 | 8.93918 | 28895 ft | 417 kts | 338° |
| 2026-04-23 18:44 | 54.69394 | 8.92112 | 29213 ft | 419 kts | 338° |
| 2026-04-23 18:44 | 54.72130 | 8.90287 | 29476 ft | 423 kts | 338° |
| 2026-04-23 18:44 | 54.74877 | 8.88447 | 29845 ft | 424 kts | 338° |
| 2026-04-23 18:44 | 54.77633 | 8.86594 | 30201 ft | 425 kts | 338° |
| 2026-04-23 18:45 | 54.80398 | 8.84732 | 30456 ft | 427 kts | 338° |
| 2026-04-23 18:45 | 54.83170 | 8.82868 | 30683 ft | 430 kts | 338° |
| 2026-04-23 18:45 | 54.85972 | 8.80981 | 30921 ft | 431 kts | 338° |
| 2026-04-23 18:45 | 54.88747 | 8.79105 | 31179 ft | 432 kts | 338° |
| 2026-04-23 18:46 | 54.91553 | 8.77229 | 31470 ft | 433 kts | 339° |
| 2026-04-23 18:46 | 54.94392 | 8.75470 | 31746 ft | 434 kts | 340° |
| 2026-04-23 18:46 | 54.97264 | 8.73798 | 31991 ft | 436 kts | 340° |
| 2026-04-23 18:46 | 55.00152 | 8.72169 | 32284 ft | 436 kts | 340° |
| 2026-04-23 18:47 | 55.03036 | 8.70541 | 32641 ft | 434 kts | 339° |
| 2026-04-23 18:47 | 55.05919 | 8.68886 | 32917 ft | 435 kts | 340° |
| 2026-04-23 18:47 | 55.08799 | 8.67205 | 33160 ft | 436 kts | 339° |
| 2026-04-23 18:47 | 55.11665 | 8.65507 | 33523 ft | 434 kts | 338° |
| 2026-04-23 18:48 | 55.14528 | 8.63796 | 33903 ft | 432 kts | 338° |
| 2026-04-23 18:48 | 55.17373 | 8.62092 | 34175 ft | 432 kts | 339° |
| 2026-04-23 18:48 | 55.20212 | 8.60391 | 34256 ft | 428 kts | 339° |
| 2026-04-23 18:49 | 55.25793 | 8.57052 | 34253 ft | 420 kts | 338° |
| 2026-04-23 18:49 | 55.31319 | 8.53726 | 34247 ft | 420 kts | 339° |
| 2026-04-23 18:50 | 55.35918 | 8.50965 | 34250 ft | 420 kts | 339° |
| 2026-04-23 18:50 | 55.42345 | 8.47087 | 34243 ft | 419 kts | 339° |
| 2026-04-23 18:51 | 55.47868 | 8.43751 | 34239 ft | 419 kts | 339° |
| 2026-04-23 18:51 | 55.53391 | 8.40399 | 34249 ft | 419 kts | 339° |
| 2026-04-23 18:52 | 55.58900 | 8.37039 | 34240 ft | 419 kts | 338° |
| 2026-04-23 18:52 | 55.64416 | 8.33668 | 34245 ft | 419 kts | 337° |
| 2026-04-23 18:53 | 55.69941 | 8.30295 | 34246 ft | 419 kts | 339° |
| 2026-04-23 18:53 | 55.75462 | 8.26912 | 34246 ft | 419 kts | 338° |
| 2026-04-23 18:54 | 55.80944 | 8.23522 | 34245 ft | 419 kts | 337° |
| 2026-04-23 18:54 | 55.86463 | 8.20119 | 34243 ft | 421 kts | 338° |
| 2026-04-23 18:55 | 55.92101 | 8.16606 | 34252 ft | 436 kts | 338° |
| 2026-04-23 18:55 | 55.97890 | 8.13004 | 34257 ft | 442 kts | 337° |
| 2026-04-23 18:56 | 56.02734 | 8.09992 | 34258 ft | 443 kts | 338° |
| 2026-04-23 18:56 | 56.09549 | 8.05735 | 34253 ft | 444 kts | 338° |
| 2026-04-23 18:57 | 56.15421 | 8.02049 | 34250 ft | 448 kts | 338° |
| 2026-04-23 18:57 | 56.21317 | 7.98340 | 34248 ft | 449 kts | 336° |
| 2026-04-23 18:58 | 56.27212 | 7.94618 | 34229 ft | 449 kts | 338° |
| 2026-04-23 18:58 | 56.33111 | 7.90868 | 34241 ft | 449 kts | 336° |
| 2026-04-23 18:59 | 56.39005 | 7.87115 | 34241 ft | 449 kts | 337° |
| 2026-04-23 18:59 | 56.44907 | 7.83361 | 34247 ft | 449 kts | 336° |
| 2026-04-23 19:00 | 56.50798 | 7.79603 | 34235 ft | 449 kts | 337° |
| 2026-04-23 19:00 | 56.56688 | 7.75802 | 34234 ft | 448 kts | 336° |
| 2026-04-23 19:01 | 56.62569 | 7.72003 | 34243 ft | 448 kts | 338° |
| 2026-04-23 19:01 | 56.68461 | 7.68213 | 34250 ft | 448 kts | 336° |
| 2026-04-23 19:02 | 56.73346 | 7.65056 | 34241 ft | 448 kts | 337° |
| 2026-04-23 19:02 | 56.80162 | 7.60616 | 34230 ft | 447 kts | 335° |
| 2026-04-23 19:03 | 56.86044 | 7.56773 | 34205 ft | 448 kts | 336° |
| 2026-04-23 19:03 | 56.91931 | 7.52915 | 34216 ft | 449 kts | 335° |
| 2026-04-23 19:04 | 56.97817 | 7.49044 | 34243 ft | 449 kts | 335° |
| 2026-04-23 19:04 | 57.03711 | 7.45147 | 34226 ft | 449 kts | 336° |
| 2026-04-23 19:05 | 57.09599 | 7.41251 | 34228 ft | 449 kts | 336° |
| 2026-04-23 19:05 | 57.15484 | 7.37347 | 34217 ft | 449 kts | 335° |
| 2026-04-23 19:06 | 57.21329 | 7.33450 | 34249 ft | 448 kts | 336° |
| 2026-04-23 19:06 | 57.27200 | 7.29518 | 34231 ft | 448 kts | 335° |
| 2026-04-23 19:07 | 57.33063 | 7.25584 | 34231 ft | 448 kts | 336° |
| 2026-04-23 19:07 | 57.38937 | 7.21637 | 34225 ft | 448 kts | 334° |
| 2026-04-23 19:08 | 57.44799 | 7.17679 | 34229 ft | 448 kts | 336° |
| 2026-04-23 19:08 | 57.50679 | 7.13699 | 34224 ft | 450 kts | 334° |
| 2026-04-23 19:09 | 57.56561 | 7.09689 | 34226 ft | 450 kts | 336° |
| 2026-04-23 19:09 | 57.62407 | 7.05695 | 34212 ft | 450 kts | 334° |
| 2026-04-23 19:10 | 57.67315 | 7.02337 | 34212 ft | 450 kts | 334° |
| 2026-04-23 19:10 | 57.73210 | 6.98295 | 34229 ft | 451 kts | 336° |
| 2026-04-23 19:11 | 57.79109 | 6.94237 | 34234 ft | 451 kts | 336° |
| 2026-04-23 19:11 | 57.84981 | 6.90188 | 34225 ft | 451 kts | 336° |
| 2026-04-23 19:12 | 57.90871 | 6.86098 | 34222 ft | 451 kts | 335° |
| 2026-04-23 19:12 | 57.96756 | 6.81986 | 34239 ft | 451 kts | 336° |
| 2026-04-23 19:13 | 58.02642 | 6.77866 | 34244 ft | 451 kts | 336° |
| 2026-04-23 19:13 | 58.08536 | 6.73730 | 34223 ft | 451 kts | 336° |
| 2026-04-23 19:14 | 58.14444 | 6.69575 | 34218 ft | 453 kts | 335° |
| 2026-04-23 19:14 | 58.20366 | 6.65399 | 34240 ft | 454 kts | 336° |
| 2026-04-23 19:15 | 58.26288 | 6.61195 | 34241 ft | 455 kts | 335° |
| 2026-04-23 19:15 | 58.32189 | 6.57003 | 34255 ft | 455 kts | 335° |
| 2026-04-23 19:16 | 58.38130 | 6.52766 | 34257 ft | 456 kts | 335° |
| 2026-04-23 19:16 | 58.44082 | 6.48498 | 34271 ft | 456 kts | 335° |
| 2026-04-23 19:17 | 58.53003 | 6.42065 | 34292 ft | 456 kts | 335° |
| 2026-04-23 19:17 | 58.58949 | 6.37783 | 34306 ft | 456 kts | 335° |
| 2026-04-23 19:18 | 58.64900 | 6.33474 | 34302 ft | 456 kts | 335° |
| 2026-04-23 19:18 | 58.70834 | 6.29148 | 34335 ft | 456 kts | 335° |
| 2026-04-23 19:19 | 58.79696 | 6.22653 | 34339 ft | 456 kts | 334° |
| 2026-04-23 19:20 | 58.88594 | 6.16107 | 33597 ft | 454 kts | 334° |
| 2026-04-23 19:20 | 58.91556 | 6.13920 | 32709 ft | 456 kts | 334° |
| 2026-04-23 19:20 | 58.94519 | 6.11725 | 31830 ft | 457 kts | 334° |
| 2026-04-23 19:21 | 58.97499 | 6.09516 | 30925 ft | 459 kts | 335° |
| 2026-04-23 19:21 | 59.03501 | 6.05069 | 28872 ft | 464 kts | 335° |
| 2026-04-23 19:21 | 59.06536 | 6.02868 | 27759 ft | 467 kts | 338° |
| 2026-04-23 19:22 | 59.09706 | 6.01336 | 26799 ft | 470 kts | 345° |
| 2026-04-23 19:22 | 59.12919 | 6.00117 | 25821 ft | 470 kts | 346° |
| 2026-04-23 19:22 | 59.19290 | 5.97698 | 24297 ft | 460 kts | 346° |
| 2026-04-23 19:23 | 59.22417 | 5.96512 | 23527 ft | 454 kts | 346° |
| 2026-04-23 19:23 | 59.25495 | 5.95338 | 22750 ft | 449 kts | 346° |
| 2026-04-23 19:23 | 59.28549 | 5.94164 | 22033 ft | 443 kts | 346° |
| 2026-04-23 19:24 | 59.34525 | 5.91870 | 20682 ft | 432 kts | 346° |
| 2026-04-23 19:24 | 59.37456 | 5.90744 | 20196 ft | 424 kts | 346° |
| 2026-04-23 19:24 | 59.43014 | 5.88639 | 19945 ft | 391 kts | 348° |
| 2026-04-23 19:25 | 59.48071 | 5.86357 | 19605 ft | 361 kts | 333° |
| 2026-04-23 19:25 | 59.52581 | 5.82266 | 18792 ft | 353 kts | 333° |
| 2026-04-23 19:26 | 59.57009 | 5.78187 | 17889 ft | 348 kts | 333° |
| 2026-04-23 19:26 | 59.59196 | 5.76173 | 17452 ft | 345 kts | 333° |
| 2026-04-23 19:27 | 59.63508 | 5.72212 | 16613 ft | 338 kts | 333° |
| 2026-04-23 19:27 | 59.69779 | 5.66443 | 14982 ft | 325 kts | 333° |
| 2026-04-23 19:28 | 59.73800 | 5.62726 | 13606 ft | 313 kts | 333° |
| 2026-04-23 19:28 | 59.77689 | 5.59115 | 12125 ft | 302 kts | 333° |
| 2026-04-23 19:29 | 59.79575 | 5.57360 | 11416 ft | 296 kts | 334° |
| 2026-04-23 19:29 | 59.83229 | 5.53960 | 10023 ft | 286 kts | 334° |
| 2026-04-23 19:30 | 59.86701 | 5.50733 | 8728 ft | 268 kts | 335° |
| 2026-04-23 19:30 | 59.88385 | 5.49161 | 7954 ft | 266 kts | 335° |
| 2026-04-23 19:30 | 59.91712 | 5.46041 | 6974 ft | 261 kts | 336° |
| 2026-04-23 19:31 | 59.93336 | 5.44517 | 6776 ft | 254 kts | 335° |
| 2026-04-23 19:31 | 59.94918 | 5.43034 | 6477 ft | 249 kts | 336° |
| 2026-04-23 19:31 | 59.96460 | 5.41584 | 6305 ft | 238 kts | 336° |
| 2026-04-23 19:31 | 59.97923 | 5.40202 | 6172 ft | 227 kts | 336° |
| 2026-04-23 19:32 | 59.99320 | 5.38885 | 6043 ft | 216 kts | 336° |
| 2026-04-23 19:32 | 60.00650 | 5.37628 | 5872 ft | 208 kts | 336° |
| 2026-04-23 19:32 | 60.01956 | 5.36401 | 5542 ft | 206 kts | 337° |
| 2026-04-23 19:32 | 60.03257 | 5.35183 | 5220 ft | 206 kts | 337° |
| 2026-04-23 19:33 | 60.04554 | 5.33962 | 4890 ft | 206 kts | 337° |
| 2026-04-23 19:33 | 60.05833 | 5.32752 | 4528 ft | 207 kts | 336° |
| 2026-04-23 19:33 | 60.08460 | 5.30258 | 3832 ft | 208 kts | 336° |
| 2026-04-23 19:34 | 60.09761 | 5.29020 | 3534 ft | 206 kts | 337° |
| 2026-04-23 19:34 | 60.11098 | 5.28005 | 3178 ft | 204 kts | 348° |
| 2026-04-23 19:34 | 60.13863 | 5.26983 | 2986 ft | 202 kts | 352° |
| 2026-04-23 19:35 | 60.15241 | 5.26524 | 2829 ft | 197 kts | 351° |
| 2026-04-23 19:35 | 60.16580 | 5.26079 | 2593 ft | 193 kts | 351° |
| 2026-04-23 19:35 | 60.17885 | 5.25640 | 2325 ft | 184 kts | 351° |
| 2026-04-23 19:35 | 60.19111 | 5.25196 | 2031 ft | 174 kts | 349° |
| 2026-04-23 19:36 | 60.20269 | 5.24772 | 1862 ft | 160 kts | 351° |
| 2026-04-23 19:36 | 60.21297 | 5.24455 | 1775 ft | 142 kts | 352° |
| 2026-04-23 19:36 | 60.22252 | 5.24185 | 1520 ft | 135 kts | 352° |
| 2026-04-23 19:36 | 60.23162 | 5.23893 | 1358 ft | 131 kts | 351° |
| 2026-04-23 19:37 | 60.24052 | 5.23533 | 1132 ft | 130 kts | 348° |
| 2026-04-23 19:37 | 60.24929 | 5.23193 | 935 ft | 133 kts | 349° |
| 2026-04-23 19:37 | 60.25838 | 5.22931 | 700 ft | 128 kts | 349° |
| 2026-04-23 19:37 | 60.26740 | 5.22673 | 526 ft | 133 kts | 347° |
| 2026-04-23 19:38 | 60.27635 | 5.22368 | 351 ft | 129 kts | 348° |
| 2026-04-23 19:38 | 60.28516 | 5.22084 | 180 ft | 128 kts | 347° |
| 2026-04-23 19:38 | 60.29295 | 5.21824 | 155 ft | 92 kts | 349° |
| 2026-04-23 19:38 | 60.29760 | 5.21661 | 154 ft | 46 kts | 349° |
| 2026-04-23 19:39 | 60.30008 | 5.21624 | 162 ft | 17 kts | 26° |
| 2026-04-23 19:39 | 60.30047 | 5.21852 | 159 ft | 17 kts | 104° |
| 2026-04-23 19:39 | 60.29942 | 5.21938 | 155 ft | 17 kts | 170° |
| 2026-04-23 19:39 | 60.29819 | 5.21979 | 150 ft | 19 kts | 170° |
| 2026-04-23 19:40 | 60.29731 | 5.22063 | 148 ft | 13 kts | 105° |
| 2026-04-23 19:40 | 60.29672 | 5.22150 | 147 ft | 11 kts | 169° |
| 2026-04-23 19:40 | 60.29607 | 5.22171 | 149 ft | 7 kts | 171° |
| 2026-04-23 19:40 | 60.29561 | 5.22186 | 152 ft | 8 kts | 171° |
| 2026-04-23 19:41 | 60.29497 | 5.22208 | 156 ft | 11 kts | 171° |
| 2026-04-23 19:41 | 60.29445 | 5.22225 | 158 ft | 12 kts | 171° |
| 2026-04-23 19:41 | 60.29349 | 5.22256 | 163 ft | 15 kts | 171° |
| 2026-04-23 19:41 | 60.29227 | 5.22299 | 166 ft | 20 kts | 169° |
| 2026-04-23 19:42 | 60.29047 | 5.22359 | 166 ft | 19 kts | 172° |
| 2026-04-23 19:42 | 60.28982 | 5.22380 | 166 ft | 8 kts | 171° |
| 2026-04-23 19:42 | 60.28949 | 5.22429 | 168 ft | 3 kts | 115° |
| 2026-04-23 19:42 | 60.28947 | 5.22441 | 168 ft | 1 kts | 110° |
| 2026-04-23 19:43 | 60.28942 | 5.22470 | 170 ft | 0 kts | 108° |
| 2026-04-23 19:43 | 60.28938 | 5.22496 | 171 ft | 1 kts | 108° |
| 2026-04-23 19:43 | 60.28936 | 5.22503 | 171 ft | 1 kts | 108° |
| 2026-04-23 19:43 | 60.28934 | 5.22517 | 172 ft | 2 kts | 108° |
| 2026-04-23 19:44 | 60.28930 | 5.22541 | 173 ft | 1 kts | 107° |
| 2026-04-23 19:44 | 60.28928 | 5.22557 | 173 ft | 1 kts | 107° |
| 2026-04-23 19:44 | 60.28927 | 5.22560 | 173 ft | 0 kts | 107° |
| 2026-04-23 19:45 | 60.28933 | 5.22546 | 173 ft | 0 kts | 108° |